createdAt,value
2019-03-08T00:01:53.196Z,2.03
2019-03-08T00:04:22.847Z,1.80
2019-03-08T00:06:51.960Z,1.90
2019-03-08T00:09:21.796Z,2.33
2019-03-08T00:11:51.397Z,2.73
2019-03-08T00:14:20.443Z,2.20
2019-03-08T00:16:49.814Z,2.10
2019-03-08T00:19:18.855Z,2.53
2019-03-08T00:21:48.244Z,2.30
2019-03-08T00:24:17.251Z,2.30
2019-03-08T00:26:46.762Z,2.77
2019-03-08T00:29:16.105Z,2.13
2019-03-08T00:31:45.198Z,2.50
2019-03-08T00:34:14.266Z,2.40
2019-03-08T00:36:43.649Z,2.23
2019-03-08T00:39:12.692Z,2.13
2019-03-08T00:41:41.705Z,2.27
2019-03-08T00:44:11.010Z,2.47
2019-03-08T00:46:40.118Z,2.90
2019-03-08T00:49:09.156Z,2.30
2019-03-08T00:51:38.175Z,2.57
2019-03-08T00:54:07.189Z,2.83
2019-03-08T00:56:36.927Z,2.60
2019-03-08T00:59:06.106Z,2.60
2019-03-08T01:01:35.122Z,3.17
2019-03-08T01:04:04.495Z,2.60
2019-03-08T01:06:33.577Z,2.67
2019-03-08T01:09:02.831Z,2.73
2019-03-08T01:11:32.099Z,1.97
2019-03-08T01:14:01.189Z,2.50
2019-03-08T01:16:30.258Z,2.80
2019-03-08T01:18:59.340Z,2.50
2019-03-08T01:21:28.708Z,2.87
2019-03-08T01:23:57.726Z,3.20
2019-03-08T01:26:26.941Z,2.70
2019-03-08T01:28:56.131Z,2.30
2019-03-08T01:31:25.457Z,2.73
2019-03-08T01:33:54.506Z,2.70
2019-03-08T01:36:23.574Z,2.30
2019-03-08T01:38:52.765Z,2.50
2019-03-08T01:41:21.788Z,2.83
2019-03-08T01:43:51.137Z,2.90
2019-03-08T01:46:20.154Z,3.10
2019-03-08T01:48:49.225Z,2.73
2019-03-08T01:51:18.364Z,2.77
2019-03-08T01:53:47.826Z,2.53
2019-03-08T01:56:16.840Z,2.23
2019-03-08T01:58:45.969Z,3.23
2019-03-08T02:01:14.984Z,3.30
2019-03-08T02:03:44.066Z,2.90
2019-03-08T02:06:13.123Z,2.63
2019-03-08T02:08:43.563Z,2.93
2019-03-08T02:11:12.932Z,3.20
2019-03-08T02:13:42.240Z,2.47
2019-03-08T02:16:11.329Z,2.90
2019-03-08T02:18:40.821Z,3.23
2019-03-08T02:21:10.230Z,3.10
2019-03-08T02:23:39.591Z,3.53
2019-03-08T02:26:08.648Z,3.13
2019-03-08T02:28:37.683Z,3.70
2019-03-08T02:31:07.343Z,3.20
2019-03-08T02:33:36.662Z,3.30
2019-03-08T02:36:06.099Z,3.50
2019-03-08T02:38:35.441Z,1.83
2019-03-08T02:41:04.462Z,1.77
2019-03-08T02:43:33.519Z,1.70
2019-03-08T02:46:02.646Z,1.60
2019-03-08T02:48:31.690Z,1.30
2019-03-08T02:51:01.347Z,1.57
2019-03-08T02:53:30.374Z,1.30
2019-03-08T02:56:09.167Z,1.20
2019-03-08T02:58:38.211Z,1.40
2019-03-08T03:01:07.241Z,1.10
2019-03-08T03:03:36.574Z,1.30
2019-03-08T03:06:05.719Z,1.20
2019-03-08T03:08:34.757Z,1.30
2019-03-08T03:11:04.132Z,1.50
2019-03-08T03:13:33.170Z,1.20
2019-03-08T03:16:02.280Z,1.20
2019-03-08T03:18:31.255Z,1.33
2019-03-08T03:21:00.731Z,1.10
2019-03-08T03:23:29.893Z,1.17
2019-03-08T03:25:59.029Z,1.27
2019-03-08T03:28:28.078Z,1.00
2019-03-08T03:30:57.386Z,1.20
2019-03-08T03:33:26.400Z,1.10
2019-03-08T03:35:55.475Z,1.40
2019-03-08T03:38:24.911Z,1.30
2019-03-08T03:40:54.319Z,1.20
2019-03-08T03:43:23.345Z,1.40
2019-03-08T03:45:52.394Z,1.87
2019-03-08T03:48:21.531Z,1.57
2019-03-08T03:50:50.617Z,1.47
2019-03-08T03:53:19.636Z,1.70
2019-03-08T03:55:48.631Z,2.10
2019-03-08T03:58:18.027Z,1.40
2019-03-08T04:00:47.070Z,1.57
2019-03-08T04:03:16.099Z,1.47
2019-03-08T04:05:45.119Z,1.37
2019-03-08T04:08:14.185Z,1.50
2019-03-08T04:10:43.228Z,1.90
2019-03-08T04:13:12.421Z,2.07
2019-03-08T04:15:41.597Z,2.17
2019-03-08T04:18:10.987Z,1.63
2019-03-08T04:20:40.295Z,1.60
2019-03-08T04:23:09.347Z,1.60
2019-03-08T04:25:38.454Z,1.80
2019-03-08T04:28:07.475Z,1.90
2019-03-08T04:30:36.487Z,1.73
2019-03-08T04:33:05.545Z,2.00
2019-03-08T04:35:34.553Z,2.23
2019-03-08T04:38:03.659Z,2.13
2019-03-08T04:40:32.719Z,2.10
2019-03-08T04:43:01.867Z,2.10
2019-03-08T04:45:31.245Z,2.27
2019-03-08T04:48:00.964Z,2.33
2019-03-08T04:50:30.439Z,2.67
2019-03-08T04:52:59.755Z,2.40
2019-03-08T04:55:29.474Z,3.23
2019-03-08T04:57:58.811Z,3.00
2019-03-08T05:00:28.483Z,2.70
2019-03-08T05:02:57.501Z,3.20
2019-03-08T05:05:26.914Z,3.20
2019-03-08T05:07:55.963Z,4.00
2019-03-08T05:10:25.222Z,3.83
2019-03-08T05:12:54.423Z,3.70
2019-03-08T05:15:23.474Z,3.80
2019-03-08T05:17:52.501Z,3.10
2019-03-08T05:20:21.530Z,3.93
2019-03-08T05:22:50.977Z,3.90
2019-03-08T05:25:21.039Z,4.07
2019-03-08T05:27:50.476Z,3.97
2019-03-08T05:30:19.892Z,4.37
2019-03-08T05:32:49.296Z,4.03
2019-03-08T05:35:18.387Z,4.43
2019-03-08T05:37:47.812Z,4.37
2019-03-08T05:40:17.876Z,3.73
2019-03-08T05:42:47.133Z,4.37
2019-03-08T05:45:16.309Z,3.87
2019-03-08T05:47:45.679Z,3.77
2019-03-08T05:50:14.717Z,4.10
2019-03-08T05:52:44.010Z,4.40
2019-03-08T05:55:13.568Z,3.83
2019-03-08T05:57:42.608Z,3.73
2019-03-08T06:00:13.147Z,4.10
2019-03-08T06:02:42.670Z,4.00
2019-03-08T06:05:11.731Z,4.27
2019-03-08T06:07:41.267Z,3.87
2019-03-08T06:10:28.865Z,4.17
2019-03-08T06:12:58.531Z,3.57
2019-03-08T06:15:27.667Z,2.60
2019-03-08T06:17:57.416Z,2.60
2019-03-08T06:20:27.203Z,2.83
2019-03-08T06:22:56.235Z,2.93
2019-03-08T06:25:25.631Z,2.90
2019-03-08T06:27:54.649Z,2.67
2019-03-08T06:30:24.046Z,2.80
2019-03-08T06:32:54.051Z,2.60
2019-03-08T06:35:23.175Z,2.67
2019-03-08T06:37:52.283Z,2.90
2019-03-08T06:40:21.705Z,2.47
2019-03-08T06:42:51.385Z,2.70
2019-03-08T06:45:20.725Z,2.50
2019-03-08T06:47:50.259Z,2.67
2019-03-08T06:50:20.063Z,2.70
2019-03-08T06:52:49.093Z,2.50
2019-03-08T06:55:18.121Z,3.20
2019-03-08T06:57:48.909Z,2.53
2019-03-08T07:00:26.672Z,2.83
2019-03-08T07:02:56.101Z,3.07
2019-03-08T07:05:25.152Z,3.20
2019-03-08T07:07:54.187Z,3.37
2019-03-08T07:10:23.285Z,3.03
2019-03-08T07:12:52.355Z,3.70
2019-03-08T07:15:21.367Z,3.03
2019-03-08T07:17:50.741Z,3.20
2019-03-08T07:20:33.735Z,2.93
2019-03-08T07:23:27.972Z,3.17
2019-03-08T07:26:20.315Z,3.03
2019-03-08T07:29:11.401Z,3.00
2019-03-08T07:31:49.919Z,3.03
2019-03-08T07:34:34.183Z,3.10
2019-03-08T07:37:16.615Z,3.70
2019-03-08T07:40:04.815Z,2.87
2019-03-08T07:42:52.820Z,2.90
2019-03-08T07:45:49.917Z,3.10
2019-03-08T07:48:28.340Z,2.97
2019-03-08T07:51:15.466Z,2.97
2019-03-08T07:53:51.231Z,2.30
2019-03-08T07:56:38.136Z,2.57
2019-03-08T07:59:35.504Z,2.90
2019-03-08T08:02:10.187Z,2.97
2019-03-08T08:04:52.331Z,3.00
2019-03-08T08:07:46.138Z,2.57
2019-03-08T08:10:32.995Z,2.57
2019-03-08T08:13:17.895Z,3.20
2019-03-08T08:16:05.916Z,3.07
2019-03-08T08:19:00.091Z,2.70
2019-03-08T08:21:49.172Z,2.50
2019-03-08T08:24:28.941Z,2.80
2019-03-08T08:27:15.811Z,2.90
2019-03-08T08:30:04.157Z,2.40
2019-03-08T08:33:04.548Z,2.37
2019-03-08T08:35:52.054Z,2.80
2019-03-08T08:38:55.391Z,2.60
2019-03-08T08:41:32.249Z,2.73
2019-03-08T08:44:20.544Z,2.33
2019-03-08T08:47:13.025Z,2.70
2019-03-08T08:49:56.696Z,3.17
2019-03-08T08:52:34.845Z,2.60
2019-03-08T08:55:19.693Z,2.63
2019-03-08T08:58:10.534Z,1.97
2019-03-08T09:01:04.333Z,1.90
2019-03-08T09:03:51.208Z,2.20
2019-03-08T09:06:31.539Z,2.00
2019-03-08T09:09:13.855Z,2.15
2019-03-08T09:11:52.478Z,2.50
2019-03-08T09:14:30.267Z,2.17
2019-03-08T09:17:08.675Z,2.37
2019-03-08T09:20:09.038Z,2.08
2019-03-08T09:22:57.257Z,2.02
2019-03-08T09:25:31.816Z,2.47
2019-03-08T09:28:23.187Z,2.60
2019-03-08T09:31:07.279Z,2.40
2019-03-08T09:33:42.929Z,2.72
2019-03-08T09:36:31.346Z,2.67
2019-03-08T09:39:32.164Z,2.90
2019-03-08T09:42:10.593Z,2.67
2019-03-08T09:44:53.407Z,2.77
2019-03-08T09:47:50.486Z,2.70
2019-03-08T09:50:50.677Z,2.87
2019-03-08T09:53:27.996Z,3.25
2019-03-08T09:56:12.855Z,2.92
2019-03-08T09:59:04.624Z,3.17
2019-03-08T10:01:42.915Z,2.50
2019-03-08T10:04:24.456Z,2.98
2019-03-08T10:07:27.550Z,2.80
2019-03-08T10:10:21.201Z,2.60
2019-03-08T10:13:12.642Z,2.45
2019-03-08T10:15:46.765Z,2.27
2019-03-08T10:18:20.262Z,2.47
2019-03-08T10:21:10.986Z,2.60
2019-03-08T10:24:08.526Z,2.50
2019-03-08T10:26:55.171Z,2.20
2019-03-08T10:29:42.032Z,2.75
2019-03-08T10:32:37.115Z,2.40
2019-03-08T10:35:23.800Z,2.37
2019-03-08T10:37:58.562Z,2.50
2019-03-08T10:40:34.536Z,2.47
2019-03-08T10:43:17.480Z,2.40
2019-03-08T10:46:15.505Z,2.55
2019-03-08T10:49:13.842Z,2.35
2019-03-08T10:52:17.650Z,2.55
2019-03-08T10:55:19.689Z,2.05
2019-03-08T10:58:07.732Z,2.40
2019-03-08T11:01:02.149Z,2.20
2019-03-08T11:03:50.156Z,2.05
2019-03-08T11:06:40.954Z,1.82
2019-03-08T11:09:24.888Z,1.93
2019-03-08T11:12:04.350Z,2.00
2019-03-08T11:14:42.469Z,1.80
2019-03-08T11:17:24.692Z,1.77
2019-03-08T11:20:11.517Z,2.07
2019-03-08T11:23:08.785Z,1.90
2019-03-08T11:25:55.784Z,1.90
2019-03-08T11:28:44.096Z,2.00
2019-03-08T11:31:41.300Z,2.50
2019-03-08T11:34:15.674Z,2.10
2019-03-08T11:36:49.348Z,2.00
2019-03-08T11:39:27.760Z,2.07
2019-03-08T11:42:16.155Z,1.70
2019-03-08T11:45:00.820Z,2.00
2019-03-08T11:47:39.753Z,2.20
2019-03-08T11:50:46.045Z,2.13
2019-03-08T11:53:36.673Z,2.40
2019-03-08T11:56:17.086Z,1.80
2019-03-08T11:58:53.731Z,2.37
2019-03-08T12:01:37.566Z,2.43
2019-03-08T12:04:20.878Z,1.90
2019-03-08T12:07:04.991Z,2.00
2019-03-08T12:10:05.780Z,2.60
2019-03-08T12:12:43.999Z,2.47
2019-03-08T12:15:35.341Z,2.20
2019-03-08T12:18:16.805Z,2.47
2019-03-08T12:21:03.866Z,2.43
2019-03-08T12:23:51.860Z,2.40
2019-03-08T12:26:45.996Z,1.83
2019-03-08T12:29:24.642Z,2.33
2019-03-08T12:32:11.898Z,2.43
2019-03-08T12:34:53.192Z,2.08
2019-03-08T12:37:56.455Z,2.22
2019-03-08T12:40:31.595Z,2.15
2019-03-08T12:43:11.524Z,2.05
2019-03-08T12:45:59.545Z,1.90
2019-03-08T12:49:05.684Z,1.90
2019-03-08T12:52:11.932Z,1.98
2019-03-08T12:54:58.788Z,1.87
2019-03-08T12:57:41.924Z,1.90
2019-03-08T13:00:32.116Z,2.00
2019-03-08T13:03:19.092Z,1.57
2019-03-08T13:06:13.310Z,1.47
2019-03-08T13:08:47.656Z,1.53
2019-03-08T13:11:16.704Z,1.70
2019-03-08T13:13:46.015Z,2.13
2019-03-08T13:16:15.074Z,1.60
2019-03-08T13:18:44.152Z,2.00
2019-03-08T13:21:13.198Z,2.20
2019-03-08T13:23:42.208Z,2.03
2019-03-08T13:26:11.258Z,1.90
2019-03-08T13:28:40.287Z,1.87
2019-03-08T13:31:09.474Z,1.97
2019-03-08T13:33:38.536Z,2.10
2019-03-08T13:36:07.559Z,2.17
2019-03-08T13:38:36.576Z,2.00
2019-03-08T13:41:05.684Z,2.20
2019-03-08T13:43:34.748Z,2.50
2019-03-08T13:46:03.819Z,2.23
2019-03-08T13:48:32.859Z,2.37
2019-03-08T13:51:01.890Z,2.03
2019-03-08T13:53:30.954Z,1.77
2019-03-08T13:56:00.074Z,2.20
2019-03-08T13:58:29.368Z,2.00
2019-03-08T14:00:58.428Z,1.60
2019-03-08T14:03:27.775Z,2.13
2019-03-08T14:05:56.882Z,1.90
2019-03-08T14:08:26.028Z,1.90
2019-03-08T14:10:56.747Z,1.90
2019-03-08T14:13:25.791Z,1.80
2019-03-08T14:15:55.312Z,1.40
2019-03-08T14:18:24.319Z,1.80
2019-03-08T14:20:53.607Z,1.80
2019-03-08T14:23:22.632Z,2.10
2019-03-08T14:25:51.872Z,1.77
2019-03-08T14:28:20.887Z,1.87
2019-03-08T14:30:58.927Z,1.73
2019-03-08T14:33:28.008Z,2.37
2019-03-08T14:35:57.087Z,2.40
2019-03-08T14:38:31.504Z,2.13
2019-03-08T14:41:07.843Z,2.03
2019-03-08T14:43:48.972Z,2.20
2019-03-08T14:46:26.154Z,2.70
2019-03-08T14:48:55.255Z,2.30
2019-03-08T14:51:24.247Z,2.03
2019-03-08T14:53:53.298Z,2.50
2019-03-08T14:56:22.590Z,2.00
2019-03-08T14:58:51.770Z,2.27
2019-03-08T15:01:21.150Z,2.60
2019-03-08T15:03:50.323Z,2.37
2019-03-08T15:06:20.022Z,3.03
2019-03-08T15:08:51.235Z,2.90
2019-03-08T15:11:23.498Z,2.90
2019-03-08T15:13:50.681Z,3.40
2019-03-08T15:16:19.740Z,2.70
2019-03-08T15:18:49.097Z,2.20
2019-03-08T15:21:18.118Z,2.50
2019-03-08T15:23:47.210Z,2.73
2019-03-08T15:26:16.287Z,2.33
2019-03-08T15:28:45.446Z,2.20
2019-03-08T15:31:14.797Z,2.33
2019-03-08T15:33:43.912Z,2.50
2019-03-08T15:36:12.968Z,2.00
2019-03-08T15:38:42.392Z,2.00
2019-03-08T15:41:11.423Z,2.83
2019-03-08T15:43:40.562Z,2.57
2019-03-08T15:46:09.601Z,2.67
2019-03-08T15:48:39.507Z,2.53
2019-03-08T15:51:08.847Z,2.43
2019-03-08T15:53:38.210Z,2.30
2019-03-08T15:56:07.286Z,2.00
2019-03-08T15:58:36.609Z,2.40
2019-03-08T16:01:08.007Z,2.70
2019-03-08T16:03:36.972Z,2.27
2019-03-08T16:06:07.383Z,2.23
2019-03-08T16:08:39.789Z,2.30
2019-03-08T16:11:07.644Z,3.10
2019-03-08T16:13:36.723Z,2.60
2019-03-08T16:16:05.913Z,2.60
2019-03-08T16:18:34.961Z,2.63
2019-03-08T16:21:04.025Z,2.37
2019-03-08T16:23:33.374Z,2.53
2019-03-08T16:26:02.478Z,2.47
2019-03-08T16:28:31.782Z,2.80
2019-03-08T16:31:10.046Z,3.00
2019-03-08T16:33:42.030Z,2.67
2019-03-08T16:36:26.882Z,2.60
2019-03-08T16:39:15.564Z,2.60
2019-03-08T16:42:01.940Z,2.43
2019-03-08T16:44:43.226Z,2.40
2019-03-08T16:47:34.110Z,2.00
2019-03-08T16:50:25.930Z,2.67
2019-03-08T16:52:59.446Z,2.17
2019-03-08T16:55:43.674Z,2.80
2019-03-08T16:58:31.706Z,3.03
2019-03-08T17:01:28.562Z,2.63
2019-03-08T17:04:16.814Z,3.40
2019-03-08T17:07:10.635Z,2.70
2019-03-08T17:09:58.928Z,2.73
2019-03-08T17:12:35.372Z,2.40
2019-03-08T17:15:26.212Z,2.27
2019-03-08T17:18:14.650Z,2.13
2019-03-08T17:20:54.493Z,2.70
2019-03-08T17:23:39.076Z,3.73
2019-03-08T17:26:17.434Z,3.30
2019-03-08T17:29:04.753Z,2.53
2019-03-08T17:31:50.921Z,2.33
2019-03-08T17:34:38.943Z,3.07
2019-03-08T17:37:26.945Z,2.63
2019-03-08T17:40:28.046Z,2.20
2019-03-08T17:43:14.586Z,2.40
2019-03-08T17:45:58.171Z,2.23
2019-03-08T17:48:41.162Z,2.53
2019-03-08T17:51:30.453Z,2.03
2019-03-08T17:54:31.510Z,2.30
2019-03-08T17:57:25.731Z,2.20
2019-03-08T18:00:12.898Z,2.90
2019-03-08T18:03:00.007Z,3.30
2019-03-08T18:05:42.500Z,3.17
2019-03-08T18:08:22.927Z,2.40
2019-03-08T18:11:11.054Z,2.53
2019-03-08T18:14:06.107Z,2.60
2019-03-08T18:16:49.443Z,2.30
2019-03-08T18:19:38.415Z,2.83
2019-03-08T18:22:33.518Z,3.10
2019-03-08T18:25:22.045Z,2.57
2019-03-08T18:28:09.064Z,2.17
2019-03-08T18:31:00.303Z,2.20
2019-03-08T18:33:43.590Z,3.13
2019-03-08T18:36:22.012Z,2.87
2019-03-08T18:39:10.280Z,2.40
2019-03-08T18:41:54.860Z,2.90
2019-03-08T18:45:04.066Z,2.60
2019-03-08T18:47:49.084Z,3.60
2019-03-08T18:50:36.006Z,4.70
2019-03-08T18:53:27.143Z,3.03
2019-03-08T18:56:06.931Z,3.37
2019-03-08T18:58:48.843Z,3.60
2019-03-08T19:01:36.382Z,2.73
2019-03-08T19:04:18.505Z,2.53
2019-03-08T19:07:17.742Z,3.33
2019-03-08T19:10:02.658Z,3.27
2019-03-08T19:12:44.161Z,2.90
2019-03-08T19:15:41.033Z,3.40
2019-03-08T19:18:29.037Z,3.67
2019-03-08T19:21:13.109Z,3.70
2019-03-08T19:23:58.119Z,2.83
2019-03-08T19:27:01.520Z,3.33
2019-03-08T19:29:48.594Z,3.37
2019-03-08T19:32:29.935Z,3.77
2019-03-08T19:35:18.385Z,3.77
2019-03-08T19:37:59.243Z,3.87
2019-03-08T19:40:38.966Z,3.40
2019-03-08T19:43:18.119Z,3.70
2019-03-08T19:46:09.165Z,3.50
2019-03-08T19:49:03.390Z,3.63
2019-03-08T19:51:40.498Z,3.70
2019-03-08T19:54:24.739Z,4.07
2019-03-08T19:57:17.215Z,3.53
2019-03-08T20:00:20.165Z,3.57
2019-03-08T20:03:09.130Z,3.43
2019-03-08T20:05:57.107Z,3.60
2019-03-08T20:08:38.706Z,2.80
2019-03-08T20:11:23.679Z,2.53
2019-03-08T20:14:21.648Z,2.23
2019-03-08T20:17:28.361Z,2.00
2019-03-08T20:20:26.861Z,2.13
2019-03-08T20:23:15.491Z,2.40
2019-03-08T20:26:06.095Z,2.70
2019-03-08T20:28:53.415Z,2.67
2019-03-08T20:31:39.149Z,2.77
2019-03-08T20:34:33.131Z,2.23
2019-03-08T20:37:09.737Z,1.90
2019-03-08T20:40:13.892Z,1.90
2019-03-08T20:42:56.910Z,1.97
2019-03-08T20:46:03.405Z,2.57
2019-03-08T20:48:32.437Z,2.90
2019-03-08T20:51:02.624Z,2.57
2019-03-08T20:53:33.925Z,2.50
2019-03-08T20:56:05.309Z,2.60
2019-03-08T20:58:34.354Z,2.80
2019-03-08T21:01:04.092Z,3.40
2019-03-08T21:03:33.785Z,2.10
2019-03-08T21:06:03.374Z,2.90
2019-03-08T21:08:32.452Z,2.90
2019-03-08T21:11:02.021Z,3.40
2019-03-08T21:13:31.869Z,2.23
2019-03-08T21:16:00.900Z,2.30
2019-03-08T21:18:30.112Z,2.20
2019-03-08T21:20:59.146Z,2.20
2019-03-08T21:23:28.529Z,2.30
2019-03-08T21:25:57.568Z,2.53
2019-03-08T21:28:26.938Z,2.17
2019-03-08T21:30:56.237Z,2.10
2019-03-08T21:33:25.246Z,2.00
2019-03-08T21:35:54.358Z,2.13
2019-03-08T21:38:23.529Z,2.00
2019-03-08T21:40:52.627Z,2.07
2019-03-08T21:43:21.676Z,2.10
2019-03-08T21:45:50.679Z,2.27
2019-03-08T21:48:20.123Z,2.33
2019-03-08T21:50:49.498Z,2.23
2019-03-08T21:53:18.518Z,2.30
2019-03-08T21:55:47.871Z,2.27
2019-03-08T21:58:17.801Z,2.17
2019-03-08T22:00:47.170Z,1.90
2019-03-08T22:03:16.263Z,2.47
2019-03-08T22:05:45.341Z,2.20
2019-03-08T22:08:17.677Z,1.90
2019-03-08T22:11:06.852Z,2.17
2019-03-08T22:13:35.913Z,2.50
2019-03-08T22:16:05.336Z,2.60
2019-03-08T22:18:34.746Z,2.30
2019-03-08T22:21:03.801Z,2.30
2019-03-08T22:23:32.928Z,2.73
2019-03-08T22:26:02.060Z,2.10
2019-03-08T22:28:31.063Z,2.37
2019-03-08T22:31:00.814Z,2.50
2019-03-08T22:33:32.203Z,2.13
2019-03-08T22:36:01.293Z,1.87
2019-03-08T22:38:30.314Z,2.10
2019-03-08T22:40:59.413Z,2.00
2019-03-08T22:43:29.096Z,2.00
2019-03-08T22:45:58.534Z,2.03
2019-03-08T22:48:27.676Z,1.90
2019-03-08T22:50:57.027Z,1.80
2019-03-08T22:53:26.122Z,1.70
2019-03-08T22:55:55.207Z,2.30
2019-03-08T22:58:24.323Z,1.97
2019-03-08T23:01:06.596Z,2.20
2019-03-08T23:03:35.614Z,2.10
2019-03-08T23:06:04.778Z,1.83
2019-03-08T23:08:36.247Z,1.93
2019-03-08T23:11:05.477Z,2.40
2019-03-08T23:13:34.820Z,2.17
2019-03-08T23:16:04.194Z,2.00
2019-03-08T23:18:33.981Z,2.13
2019-03-08T23:21:03.703Z,2.60
2019-03-08T23:23:33.163Z,2.10
2019-03-08T23:26:02.237Z,1.97
2019-03-08T23:28:50.196Z,2.07
2019-03-08T23:31:32.624Z,2.53
2019-03-08T23:34:02.894Z,2.37
2019-03-08T23:36:32.071Z,2.37
2019-03-08T23:39:01.121Z,2.47
2019-03-08T23:41:30.183Z,1.80
2019-03-08T23:43:59.315Z,2.40
2019-03-08T23:46:28.341Z,2.13
2019-03-08T23:48:58.097Z,2.40
2019-03-08T23:51:27.497Z,2.90
2019-03-08T23:53:56.547Z,2.53
2019-03-08T23:56:25.605Z,2.43
2019-03-08T23:58:54.628Z,2.40
